Time;durP1;ratioP1;P1;durP2;ratioP2;P2;SDS_P1;SDS_P2;PMS_P1;PMS_P2;Temp;Humidity;BMP_temperature;BMP_pressure;BME280_temperature;BME280_humidity;BME280_pressure;Samples;Min_cycle;Max_cycle;Signal;HPM_P1;HPM_P2
2022/08/25 00:00:52;;;;;;;1.92;0.80;;;;;;;24.57;49.35;101521.59;16140013;19;128989;-48
2022/08/25 00:06:15;;;;;;;1.20;0.80;;;;;;;24.57;49.43;101510.41;16144280;19;129870;-46
2022/08/25 00:11:38;;;;;;;3.22;1.08;;;;;;;24.56;49.62;101508.72;16143542;19;129921;-44
2022/08/25 00:17:00;;;;;;;4.10;1.10;;;;;;;24.55;49.88;101498.66;16144164;19;128974;-47
2022/08/25 00:22:22;;;;;;;1.95;0.90;;;;;;;24.56;49.53;101499.47;16144221;19;129542;-45
2022/08/25 00:27:44;;;;;;;1.42;0.98;;;;;;;24.56;49.71;101503.13;16145760;19;131597;-44
2022/08/25 00:33:07;;;;;;;1.20;0.90;;;;;;;24.55;49.53;101495.03;16143113;19;129480;-44
2022/08/25 00:38:28;;;;;;;1.13;1.00;;;;;;;24.54;49.68;101496.97;16140603;19;129289;-45
2022/08/25 00:43:56;;;;;;;3.03;1.10;;;;;;;24.55;49.84;101495.84;16143009;19;129684;-44
2022/08/25 00:49:27;;;;;;;2.92;1.00;;;;;;;24.53;49.90;101489.69;16141281;19;129498;-43
2022/08/25 00:55:03;;;;;;;1.10;0.90;;;;;;;24.54;49.78;101490.53;16139523;19;129652;-44
2022/08/25 01:00:35;;;;;;;0.80;0.80;;;;;;;24.53;49.96;101489.69;16135775;19;129628;-46
2022/08/25 01:05:59;;;;;;;1.48;1.02;;;;;;;24.52;50.20;101488.00;16144482;19;130358;-43
2022/08/25 01:11:21;;;;;;;1.00;0.63;;;;;;;24.52;49.86;101490.78;16142594;19;129715;-43
2022/08/25 01:16:43;;;;;;;0.80;0.80;;;;;;;24.52;50.06;101485.19;16140912;19;129097;-45
2022/08/25 01:22:05;;;;;;;1.10;0.80;;;;;;;24.52;50.15;101488.00;16141356;19;129493;-44
2022/08/25 01:27:26;;;;;;;1.60;0.68;;;;;;;24.51;50.04;101491.91;16139468;19;129149;-46
2022/08/25 01:32:48;;;;;;;1.00;0.80;;;;;;;24.52;49.96;101493.59;16142302;19;129329;-44
2022/08/25 01:38:11;;;;;;;0.65;0.63;;;;;;;24.51;50.15;101494.69;16138458;19;130015;-45
2022/08/25 01:43:37;;;;;;;3.28;0.70;;;;;;;24.52;50.36;101499.19;16139045;19;129427;-45
2022/08/25 01:49:09;;;;;;;1.70;0.80;;;;;;;24.51;50.25;101503.09;16216399;19;129306;-43
2022/08/25 01:54:31;;;;;;;3.00;0.70;;;;;;;24.51;50.16;101489.09;16213517;19;129356;-42
2022/08/25 01:59:53;;;;;;;0.98;0.55;;;;;;;24.51;50.36;101488.28;16214699;19;129755;-44
2022/08/25 02:05:15;;;;;;;0.98;0.70;;;;;;;24.51;50.30;101489.09;16212300;19;131296;-47
2022/08/25 02:10:44;;;;;;;2.25;0.80;;;;;;;24.50;50.35;101476.22;16213380;19;130240;-44
2022/08/25 02:16:08;;;;;;;1.20;0.60;;;;;;;24.50;50.32;101481.81;16211902;19;130019;-46
2022/08/25 02:21:31;;;;;;;1.48;0.70;;;;;;;24.49;50.36;101471.78;16213303;19;130907;-46
2022/08/25 02:26:53;;;;;;;1.10;0.40;;;;;;;24.49;50.16;101477.38;16206011;19;129858;-43
2022/08/25 02:32:14;;;;;;;1.20;0.70;;;;;;;24.49;50.49;101480.16;16209794;19;131758;-44
2022/08/25 02:37:36;;;;;;;0.70;0.70;;;;;;;24.48;50.42;101478.50;16210245;19;128900;-46
2022/08/25 02:42:58;;;;;;;1.15;0.60;;;;;;;24.48;50.40;101467.31;16209246;19;130196;-44
2022/08/25 02:48:20;;;;;;;1.17;0.75;;;;;;;24.48;50.51;101472.91;16208148;19;129227;-45
2022/08/25 02:53:44;;;;;;;1.52;0.52;;;;;;;24.48;50.39;101470.09;16212515;19;129440;-45
2022/08/25 02:59:06;;;;;;;0.73;0.57;;;;;;;24.47;50.38;101475.94;16162011;19;129467;-43
2022/08/25 03:04:28;;;;;;;1.13;0.60;;;;;;;24.47;50.39;101468.41;16136616;19;130167;-43
2022/08/25 03:09:50;;;;;;;0.85;0.65;;;;;;;24.47;50.44;101475.94;16144681;19;129262;-45
2022/08/25 03:15:17;;;;;;;0.98;0.50;;;;;;;24.46;50.04;101463.94;16146728;19;130242;-45
2022/08/25 03:20:39;;;;;;;0.50;0.50;;;;;;;24.46;50.32;101463.94;16145797;19;128916;-47
2022/08/25 03:31:43;;;;;;;0.82;0.50;;;;;;;24.46;50.37;101451.88;16144947;19;130765;-42
2022/08/25 03:37:07;;;;;;;2.38;0.80;;;;;;;24.45;50.24;101445.47;16144681;19;129596;-43
2022/08/25 03:42:29;;;;;;;2.92;0.95;;;;;;;24.45;50.47;101439.00;16140680;19;129792;-43
2022/08/25 03:47:51;;;;;;;2.05;0.90;;;;;;;24.44;50.19;101421.41;16140244;19;130695;-43
2022/08/25 03:53:13;;;;;;;3.80;0.65;;;;;;;24.44;50.18;101432.59;16143906;19;130018;-43
2022/08/25 03:58:35;;;;;;;4.13;0.95;;;;;;;24.45;50.31;101436.22;16142339;19;129362;-47
2022/08/25 04:03:57;;;;;;;2.38;0.63;;;;;;;24.43;50.27;101431.75;16143602;19;128931;-43
2022/08/25 04:09:20;;;;;;;2.10;0.75;;;;;;;24.43;50.19;101420.56;16135589;19;129101;-43
2022/08/25 04:14:41;;;;;;;2.17;0.80;;;;;;;24.43;49.92;101425.31;16144315;19;129650;-44
2022/08/25 04:20:05;;;;;;;1.67;0.80;;;;;;;24.43;50.42;101416.94;16143488;19;129590;-43
2022/08/25 04:25:27;;;;;;;1.70;0.70;;;;;;;24.42;50.14;101407.72;16141890;19;129454;-43
2022/08/25 04:30:49;;;;;;;0.98;0.60;;;;;;;24.41;50.15;101406.03;16143397;19;129691;-45
2022/08/25 04:36:13;;;;;;;2.78;0.70;;;;;;;24.41;49.95;101402.38;16138441;19;129573;-47
2022/08/25 04:41:35;;;;;;;3.55;0.73;;;;;;;24.41;49.87;101413.56;16140455;19;129459;-42
2022/08/25 04:46:58;;;;;;;1.38;0.65;;;;;;;24.41;50.08;101413.56;16137274;19;129454;-43
2022/08/25 04:52:19;;;;;;;1.73;0.75;;;;;;;24.39;50.28;101411.03;16141383;19;130375;-43
2022/08/25 04:57:42;;;;;;;1.52;0.52;;;;;;;24.39;49.94;101413.84;16139549;19;129505;-43
2022/08/25 05:03:04;;;;;;;0.95;0.60;;;;;;;24.39;50.11;101413.84;16134482;19;130357;-42
2022/08/25 05:08:26;;;;;;;2.03;0.82;;;;;;;24.38;50.17;101414.09;16135489;19;129356;-42
2022/08/25 05:13:50;;;;;;;1.75;0.60;;;;;;;24.39;50.09;101418.59;16136112;19;129290;-44
2022/08/25 05:19:12;;;;;;;3.53;0.57;;;;;;;24.38;49.95;101428.94;16139314;19;130315;-46
2022/08/25 05:24:34;;;;;;;2.53;0.98;;;;;;;24.37;50.11;101437.63;16138119;19;129079;-44
2022/08/25 05:29:55;;;;;;;1.60;0.60;;;;;;;24.37;50.00;101437.63;16137858;19;129858;-45
2022/08/25 05:35:19;;;;;;;1.15;0.47;;;;;;;24.37;49.99;101440.41;16142929;19;130734;-45
2022/08/25 05:40:40;;;;;;;1.83;0.60;;;;;;;24.37;50.03;101443.22;16138114;19;130430;-43
2022/08/25 05:46:02;;;;;;;1.70;0.52;;;;;;;24.38;49.95;101447.66;16141959;19;129915;-45
2022/08/25 05:51:25;;;;;;;1.27;0.70;;;;;;;24.37;49.89;101446.84;16144787;19;130662;-45
2022/08/25 05:56:47;;;;;;;2.85;0.60;;;;;;;24.37;49.90;101446.00;16141566;19;129705;-43
2022/08/25 06:07:51;;;;;;;1.25;0.43;;;;;;;24.37;49.95;101452.41;16137044;19;129460;-47
2022/08/25 06:13:13;;;;;;;1.50;0.40;;;;;;;24.38;50.06;101447.66;16134309;19;130734;-45
2022/08/25 06:18:34;;;;;;;8.43;2.20;;;;;;;24.33;46.60;101439.25;16132728;19;132213;-46
2022/08/25 06:23:56;;;;;;;13.27;2.35;;;;;;;24.26;45.31;101439.50;16135284;19;129599;-46
2022/08/25 06:29:19;;;;;;;8.65;2.80;;;;;;;24.21;44.63;101436.66;16126453;19;129683;-45
2022/08/25 06:34:41;;;;;;;10.95;2.60;;;;;;;24.18;43.14;101438.03;16145936;19;129208;-44
2022/08/25 06:40:06;;;;;;;12.25;2.78;;;;;;;24.16;42.34;101443.06;16147802;19;130355;-43
2022/08/25 06:45:27;;;;;;;5.00;2.58;;;;;;;24.13;43.40;101449.19;16146948;19;130071;-43
2022/08/25 06:50:49;;;;;;;6.15;2.75;;;;;;;24.16;43.65;101453.41;16149319;19;129337;-43
2022/08/25 06:56:12;;;;;;;7.20;2.42;;;;;;;24.14;43.67;101436.91;16148073;19;129847;-47
2022/08/25 07:01:34;;;;;;;4.35;2.60;;;;;;;24.16;43.21;101443.06;16145168;19;130272;-42
2022/08/25 07:06:56;;;;;;;2.88;2.00;;;;;;;24.18;44.02;101432.44;16143828;19;129067;-45
2022/08/25 07:12:17;;;;;;;5.32;2.45;;;;;;;24.20;44.07;101427.44;16146900;19;129487;-42
2022/08/25 07:17:39;;;;;;;3.75;2.20;;;;;;;24.24;44.56;101416.53;16145845;19;129500;-42
2022/08/25 07:23:04;;;;;;;7.57;2.40;;;;;;;24.26;44.56;101419.94;16145377;19;129181;-43
2022/08/25 07:28:26;;;;;;;4.00;1.90;;;;;;;24.27;44.51;101428.03;16142345;19;130209;-43
2022/08/25 07:39:31;;;;;;;7.22;2.25;;;;;;;24.31;44.87;101439.53;16143956;19;129259;-43
2022/08/25 07:44:52;;;;;;;1.95;1.60;;;;;;;24.33;44.81;101436.47;16141789;19;130522;-45
2022/08/25 07:50:14;;;;;;;3.17;1.60;;;;;;;24.32;45.05;101441.19;16135743;19;129513;-42
2022/08/25 07:55:37;;;;;;;1.90;1.42;;;;;;;24.33;45.25;101437.28;16143289;19;130895;-43
2022/08/25 08:00:58;;;;;;;3.10;1.52;;;;;;;24.34;45.06;101435.34;16143253;19;128920;-47
2022/08/25 08:06:22;;;;;;;4.25;1.77;;;;;;;24.36;44.56;101447.13;16143069;19;129479;-46
2022/08/25 08:11:44;;;;;;;4.45;2.13;;;;;;;24.37;44.39;101438.44;16145553;19;130129;-47
2022/08/25 08:17:15;;;;;;;1.73;1.30;;;;;;;24.38;44.07;101445.72;16136788;19;129164;-46
2022/08/25 08:22:39;;;;;;;5.18;1.70;;;;;;;24.40;44.32;101443.50;16137128;19;130281;-45
2022/08/25 08:28:01;;;;;;;5.88;1.88;;;;;;;24.41;44.18;101445.19;16139386;19;129768;-49
2022/08/25 08:33:24;;;;;;;4.05;1.88;;;;;;;24.45;44.29;101450.19;16138747;19;129481;-45
2022/08/25 08:38:48;;;;;;;2.43;1.60;;;;;;;24.47;44.29;101447.97;16141172;19;130380;-46
2022/08/25 08:44:41;;;;;;;4.57;1.77;;;;;;;24.49;44.68;101446.59;16140499;19;129632;-45
2022/08/25 08:50:32;;;;;;;2.22;1.50;;;;;;;24.50;44.63;101448.25;16136921;19;128907;-47
2022/08/25 08:56:18;;;;;;;5.20;1.80;;;;;;;24.52;44.53;101446.03;16132864;19;129729;-47
2022/08/25 09:01:56;;;;;;;2.00;1.40;;;;;;;24.55;44.67;101434.31;16138155;19;130046;-46
2022/08/25 09:07:23;;;;;;;7.38;1.50;;;;;;;24.61;45.08;101439.94;16138940;19;130661;-46
2022/08/25 09:12:55;;;;;;;6.53;2.00;;;;;;;24.64;45.41;101426.22;16139795;19;129279;-49
2022/08/25 09:18:28;;;;;;;8.65;1.70;;;;;;;24.69;45.61;101425.41;16130179;19;130277;-49
2022/08/25 09:24:35;;;;;;;8.50;1.95;;;;;;;24.73;45.44;101415.34;16138584;19;129474;-46
2022/08/25 09:30:12;;;;;;;5.30;1.30;;;;;;;24.79;45.27;101419.00;16132027;19;130662;-48
2022/08/25 09:35:39;;;;;;;2.60;1.58;;;;;;;24.82;45.34;101421.22;16132331;19;129298;-47
2022/08/25 09:41:01;;;;;;;3.75;1.38;;;;;;;24.85;45.55;101407.53;16137709;19;130140;-45
2022/08/25 09:46:27;;;;;;;2.58;1.40;;;;;;;24.87;45.50;101405.28;16133864;19;129135;-44
2022/08/25 09:51:49;;;;;;;;;;;;;;;24.86;45.26;101399.97;16126764;19;129794;-48
2022/08/25 09:57:33;;;;;;;1.92;1.30;;;;;;;24.92;45.29;101401.69;16120702;19;130075;-45
2022/08/25 10:03:04;;;;;;;4.22;1.15;;;;;;;24.93;45.54;101396.94;16135979;19;129702;-47
2022/08/25 10:08:43;;;;;;;1.55;1.08;;;;;;;24.92;45.66;101395.25;16142539;19;129631;-48
2022/08/25 10:14:17;;;;;;;1.33;1.15;;;;;;;24.93;45.85;101371.72;16146563;19;129771;-44
2022/08/25 10:19:39;;;;;;;1.67;1.10;;;;;;;24.94;45.74;101367.81;16151611;19;130928;-53
2022/08/25 10:25:03;;;;;;;3.15;1.30;;;;;;;24.97;45.92;101364.47;16150489;19;129511;-50
2022/08/25 10:30:41;;;;;;;3.27;1.30;;;;;;;25.00;45.88;101363.88;16143225;19;129774;-47
2022/08/25 10:36:19;;;;;;;4.90;1.13;;;;;;;25.01;45.75;101362.78;16149083;19;129768;-50
2022/08/25 10:41:56;;;;;;;2.40;1.20;;;;;;;25.03;45.76;101361.41;16150974;19;130289;-49
2022/08/25 10:47:56;;;;;;;2.95;1.20;;;;;;;25.06;45.47;101354.38;16145786;19;130009;-50
2022/08/25 10:53:35;;;;;;;3.20;1.10;;;;;;;25.07;45.49;101341.22;16143703;19;130637;-50
2022/08/25 10:59:18;;;;;;;3.65;1.20;;;;;;;25.08;45.22;101349.34;16147916;19;129475;-51
2022/08/25 11:04:57;;;;;;;3.50;1.10;;;;;;;25.09;45.21;101347.38;16149532;19;130265;-51
2022/08/25 11:10:26;;;;;;;3.40;1.60;;;;;;;25.10;45.01;101335.91;16144301;19;129479;-52
2022/08/25 11:15:57;;;;;;;2.13;1.10;;;;;;;25.11;45.49;101322.75;16149024;19;129726;-49
2022/08/25 11:21:46;;;;;;;4.15;1.38;;;;;;;25.12;45.09;101319.66;16147365;19;129811;-49
2022/08/25 11:27:16;;;;;;;3.28;1.30;;;;;;;25.15;44.83;101315.47;16143888;19;130068;-48
2022/08/25 11:32:39;;;;;;;3.97;1.27;;;;;;;25.17;44.90;101305.66;16146399;19;129532;-47
2022/08/25 11:38:23;;;;;;;6.27;1.30;;;;;;;25.22;44.65;101312.38;16145513;19;130152;-46
2022/08/25 11:44:22;;;;;;;2.67;1.30;;;;;;;25.22;44.91;101304.81;16145440;19;130754;-49
2022/08/25 11:50:07;;;;;;;3.78;1.23;;;;;;;25.24;44.70;101298.91;16134055;19;131355;-51
2022/08/25 11:55:50;;;;;;;5.13;1.23;;;;;;;25.26;44.53;101288.28;16131617;19;129929;-44
2022/08/25 12:01:39;;;;;;;9.68;1.40;;;;;;;25.30;44.45;101281.00;16133852;19;129822;-47
2022/08/25 12:07:10;;;;;;;2.22;1.40;;;;;;;25.33;44.51;101269.25;16134667;19;129146;-45
2022/08/25 12:12:40;;;;;;;7.10;1.60;;;;;;;25.36;43.84;101267.81;16128010;19;130793;-47
2022/08/25 12:18:16;;;;;;;13.80;1.67;;;;;;;25.38;43.54;101266.41;16131855;19;131054;-45
2022/08/25 12:24:09;;;;;;;7.35;1.80;;;;;;;25.40;43.66;101258.56;16134364;19;129836;-46
2022/08/25 12:29:56;;;;;;;15.27;1.70;;;;;;;25.45;43.66;101266.97;16136955;19;130443;-47
2022/08/25 12:35:18;;;;;;;4.88;1.52;;;;;;;25.45;43.37;101255.75;16141835;19;130999;-49
2022/08/25 12:40:42;;;;;;;8.60;1.83;;;;;;;25.49;43.31;101259.66;16142412;19;129412;-46
2022/08/25 12:46:24;;;;;;;13.18;1.98;;;;;;;25.53;43.44;101257.16;16136577;19;129953;-48
2022/08/25 12:51:52;;;;;;;9.38;1.50;;;;;;;25.55;43.26;101262.47;16132782;19;130284;-49
2022/08/25 12:57:26;;;;;;;11.32;2.08;;;;;;;25.58;43.10;101254.31;16136270;19;130205;-48
2022/08/25 13:03:12;;;;;;;4.25;1.30;;;;;;;25.59;43.19;101249.56;16130441;19;129274;-46
2022/08/25 13:09:12;;;;;;;3.88;1.30;;;;;;;25.61;42.97;101250.09;16126623;19;130722;-49
2022/08/25 13:14:39;;;;;;;14.05;1.50;;;;;;;25.62;43.14;101237.78;16135125;19;129284;-46
2022/08/25 13:20:25;;;;;;;6.30;1.50;;;;;;;25.61;43.29;101236.94;16138267;19;129026;-48
2022/08/25 13:25:50;;;;;;;4.65;1.33;;;;;;;25.64;43.36;101232.72;16134879;19;129670;-48
2022/08/25 13:31:20;;;;;;;8.18;1.77;;;;;;;25.66;43.20;101236.09;16129352;19;129864;-44
2022/08/25 13:42:26;;;;;;;6.38;1.63;;;;;;;25.67;43.14;101220.09;16135686;19;130691;-46
2022/08/25 13:47:51;;;;;;;6.20;1.75;;;;;;;25.65;43.45;101226.00;16126549;19;129354;-48
2022/08/25 13:53:24;;;;;;;5.03;1.50;;;;;;;25.65;43.34;101214.78;16128233;19;130920;-51
2022/08/25 13:58:46;;;;;;;5.47;1.30;;;;;;;25.66;43.25;101205.25;16129561;19;129759;-47
2022/08/25 14:04:31;;;;;;;3.85;1.33;;;;;;;25.68;43.30;101214.22;16137085;19;129076;-50
2022/08/25 14:10:00;;;;;;;5.20;1.27;;;;;;;25.70;43.16;101206.38;16122750;19;130308;-46
2022/08/25 14:15:22;;;;;;;3.33;1.70;;;;;;;25.72;43.41;101197.66;16132896;19;130342;-46
2022/08/25 14:20:52;;;;;;;5.50;1.30;;;;;;;25.77;43.71;101194.84;16132737;19;130199;-47
2022/08/25 14:26:14;;;;;;;8.50;1.60;;;;;;;25.78;43.72;101186.13;16131649;19;129727;-46
2022/08/25 14:31:42;;;;;;;5.18;1.70;;;;;;;25.86;43.88;101181.03;16124577;19;130159;-42
2022/08/25 14:37:16;;;;;;;3.90;1.65;;;;;;;25.90;44.56;101193.34;16131148;19;130607;-43
2022/08/25 14:42:38;;;;;;;9.95;1.85;;;;;;;25.91;44.82;101183.81;16127256;19;130536;-44
2022/08/25 14:48:05;;;;;;;4.53;1.77;;;;;;;25.91;45.10;101176.22;16125091;19;130686;-44
2022/08/25 14:53:32;;;;;;;5.15;2.00;;;;;;;25.92;44.54;101166.69;16137404;19;129369;-44
2022/08/25 14:58:54;;;;;;;3.67;1.30;;;;;;;25.92;44.59;101174.28;16146018;19;130086;-44
2022/08/25 15:04:19;;;;;;;4.43;1.75;;;;;;;25.94;44.28;101172.03;16139244;19;130179;-43
2022/08/25 15:09:41;;;;;;;3.78;1.42;;;;;;;25.95;44.59;101171.72;16143357;19;130246;-46
2022/08/25 15:15:03;;;;;;;26.45;9.10;;;;;;;25.97;43.81;101177.03;16140097;19;129240;-45
2022/08/25 15:20:25;;;;;;;34.83;14.23;;;;;;;25.96;44.20;101164.19;16146111;19;128990;-43
2022/08/25 15:25:48;;;;;;;39.80;14.57;;;;;;;25.95;43.79;101173.72;16143223;19;129387;-42
2022/08/25 15:31:14;;;;;;;39.22;14.80;;;;;;;25.94;44.18;101160.81;16139579;19;130000;-45
2022/08/25 15:36:36;;;;;;;33.80;13.93;;;;;;;25.94;44.04;101160.81;16143220;19;130034;-43
2022/08/25 15:41:58;;;;;;;31.92;12.90;;;;;;;25.94;43.91;101169.22;16140962;19;130228;-46
2022/08/25 15:47:22;;;;;;;31.58;11.98;;;;;;;25.94;43.86;101163.63;16137954;19;129054;-46
2022/08/25 15:52:45;;;;;;;27.03;10.53;;;;;;;25.92;43.44;101166.69;16137718;19;131927;-45
2022/08/25 15:58:08;;;;;;;23.50;9.88;;;;;;;25.92;43.18;101157.47;16138481;19;130593;-42
2022/08/25 16:03:31;;;;;;;21.02;8.82;;;;;;;25.90;43.19;101160.56;16142909;19;129712;-41
2022/08/25 16:08:53;;;;;;;18.30;7.75;;;;;;;25.92;42.58;101168.69;16134559;19;130343;-44
2022/08/25 16:14:15;;;;;;;18.67;7.55;;;;;;;25.92;43.20;101179.91;16138007;19;131201;-48
2022/08/25 16:19:37;;;;;;;19.58;7.40;;;;;;;25.95;43.38;101182.13;16129561;19;129453;-44
2022/08/25 16:25:01;;;;;;;17.40;7.03;;;;;;;25.98;43.47;101192.72;16140640;19;129453;-43
2022/08/25 16:30:23;;;;;;;14.32;6.28;;;;;;;26.00;43.78;101193.28;16136678;19;129621;-43
2022/08/25 16:35:46;;;;;;;18.40;6.75;;;;;;;26.04;44.06;101194.38;16138610;19;130413;-44
2022/08/25 16:41:20;;;;;;;19.10;6.85;;;;;;;26.04;44.23;101188.78;16136294;19;129971;-45
2022/08/25 16:46:41;;;;;;;27.27;7.65;;;;;;;26.06;44.42;101192.13;16135891;19;129526;-42
2022/08/25 16:55:11;;;;;;;18.83;6.30;;;;;;;26.07;44.37;101191.00;16135328;19;129663;-44
2022/08/25 16:57:54;;;;;;;28.45;6.60;;;;;;;26.09;44.87;101202.75;16136995;19;129868;-44
2022/08/25 17:03:16;;;;;;;20.92;6.38;;;;;;;26.02;44.82;101199.44;16138293;19;129240;-41
2022/08/25 17:08:38;;;;;;;28.50;6.90;;;;;;;26.03;45.16;101194.69;16135708;19;129833;-42
2022/08/25 17:14:03;;;;;;;16.17;5.15;;;;;;;26.00;45.20;101198.88;16133595;19;129826;-43
2022/08/25 17:19:32;;;;;;;24.73;5.43;;;;;;;25.98;45.45;101206.75;16137988;19;129568;-42
2022/08/25 17:24:54;;;;;;;12.73;4.80;;;;;;;25.97;45.26;101199.47;16134258;19;128981;-43
2022/08/25 17:30:21;;;;;;;8.63;3.67;;;;;;;25.94;45.44;101211.28;16134570;19;129286;-42
2022/08/25 17:35:48;;;;;;;12.63;4.50;;;;;;;25.88;45.44;101210.47;16135800;19;129934;-42
2022/08/25 17:41:11;;;;;;;7.03;3.60;;;;;;;25.86;45.62;101211.88;16136454;19;129734;-42
2022/08/25 17:46:32;;;;;;;14.63;3.92;;;;;;;25.84;45.73;101220.56;16132401;19;130272;-45
2022/08/25 17:51:54;;;;;;;6.72;3.70;;;;;;;25.84;46.25;101225.34;16129796;19;130240;-41
2022/08/25 17:57:16;;;;;;;15.55;4.30;;;;;;;25.82;45.89;101231.22;16135874;19;129728;-45
2022/08/25 18:02:38;;;;;;;12.43;4.68;;;;;;;25.83;46.12;101229.28;16134932;19;128886;-47
2022/08/25 18:08:00;;;;;;;15.02;4.30;;;;;;;25.81;46.34;101229.56;16133929;19;129325;-44
2022/08/25 18:13:25;;;;;;;15.43;4.70;;;;;;;25.81;46.43;101240.75;16135173;19;132228;-42
2022/08/25 18:18:49;;;;;;;13.00;4.40;;;;;;;25.79;46.18;101243.88;16132538;19;129458;-42
2022/08/25 18:24:13;;;;;;;10.73;4.37;;;;;;;25.77;46.26;101256.50;16131704;19;129417;-42
2022/08/25 18:29:35;;;;;;;9.18;3.40;;;;;;;25.76;46.12;101268.84;16135813;19;129253;-43
2022/08/25 18:34:57;;;;;;;13.07;4.10;;;;;;;25.74;46.40;101262.66;16149368;19;131888;-44
2022/08/25 18:40:22;;;;;;;11.93;3.20;;;;;;;25.72;46.10;101281.72;16146835;19;128933;-44
2022/08/25 18:45:49;;;;;;;8.65;3.25;;;;;;;25.70;46.09;101295.19;16145070;19;129589;-42
2022/08/25 18:51:10;;;;;;;8.13;3.40;;;;;;;25.68;45.90;101297.44;16145633;19;129483;-42
2022/08/25 18:56:33;;;;;;;8.82;3.20;;;;;;;25.66;46.26;101294.91;16148598;19;129529;-43
2022/08/25 19:01:56;;;;;;;7.13;2.95;;;;;;;25.65;45.89;101304.44;16145040;19;128973;-43
2022/08/25 19:07:18;;;;;;;5.63;2.83;;;;;;;25.64;45.90;101313.97;16146459;19;129143;-42
2022/08/25 19:12:40;;;;;;;7.32;3.00;;;;;;;25.62;46.07;101330.22;16139861;19;129833;-43
2022/08/25 19:18:05;;;;;;;6.00;3.30;;;;;;;25.60;46.38;101338.09;16145485;19;129171;-44
2022/08/25 19:23:31;;;;;;;8.95;3.50;;;;;;;25.58;46.47;101343.16;16147800;19;128906;-42
2022/08/25 19:28:54;;;;;;;8.52;3.65;;;;;;;25.56;46.49;101351.00;16145243;19;129054;-43
2022/08/25 19:34:24;;;;;;;16.30;4.15;;;;;;;25.56;46.67;101365.81;16145143;19;129547;-44
2022/08/25 19:39:52;;;;;;;18.27;4.13;;;;;;;25.54;46.43;101368.06;16142842;19;129028;-45
2022/08/25 19:45:14;;;;;;;10.50;3.60;;;;;;;25.53;46.48;101371.16;16143547;19;129313;-45
2022/08/25 19:50:37;;;;;;;27.45;3.67;;;;;;;25.50;46.71;101381.78;16139035;19;129544;-43
2022/08/25 19:56:00;;;;;;;18.52;3.53;;;;;;;25.48;46.71;101384.00;16147253;19;130389;-42
2022/08/25 20:01:22;;;;;;;15.90;3.22;;;;;;;25.47;46.87;101387.97;16145421;19;129362;-45
2022/08/25 20:06:46;;;;;;;20.83;3.47;;;;;;;25.47;46.89;101385.16;16142103;19;128868;-42
2022/08/25 20:12:09;;;;;;;14.77;3.33;;;;;;;25.49;47.04;101382.91;16140882;19;130809;-42
2022/08/25 20:17:32;;;;;;;11.88;3.05;;;;;;;25.50;46.88;101384.56;16140701;19;130696;-43
2022/08/25 20:24:46;;;;;;;13.40;3.63;;;;;;;25.48;46.86;101394.41;16144641;19;130055;-43
2022/08/25 20:28:36;;;;;;;12.65;3.28;;;;;;;25.47;47.07;101407.56;16137643;19;130662;-43
2022/08/25 20:34:03;;;;;;;13.98;3.60;;;;;;;25.46;47.01;101408.69;16141177;19;129495;-44
2022/08/25 20:39:24;;;;;;;12.57;2.92;;;;;;;25.44;46.97;101410.94;16137180;19;129036;-44
2022/08/25 20:44:46;;;;;;;8.48;2.67;;;;;;;25.44;46.87;101415.69;16140194;19;129334;-43
2022/08/25 20:50:09;;;;;;;9.93;3.08;;;;;;;25.42;47.02;101424.38;16133965;19;130254;-43
2022/08/25 20:55:30;;;;;;;9.00;3.13;;;;;;;25.42;47.04;101426.31;16140127;19;128920;-44
2022/08/25 21:01:02;;;;;;;6.30;2.50;;;;;;;25.40;46.83;101421.00;16137021;19;128906;-46
2022/08/25 21:06:24;;;;;;;7.03;2.80;;;;;;;25.39;47.00;101433.31;16132294;19;128908;-43
2022/08/25 21:11:46;;;;;;;8.77;3.10;;;;;;;25.38;46.56;101425.22;16134266;19;129428;-42
2022/08/25 21:17:12;;;;;;;8.70;2.70;;;;;;;25.36;46.86;101427.47;16137655;19;130770;-42
2022/08/25 21:22:34;;;;;;;7.43;2.58;;;;;;;25.35;46.75;101435.03;16138854;19;129259;-42
2022/08/25 21:27:58;;;;;;;5.07;2.23;;;;;;;25.34;46.70;101438.94;16136765;19;129364;-42
2022/08/25 21:33:20;;;;;;;8.73;2.67;;;;;;;25.33;46.43;101448.47;16134442;19;129495;-43
2022/08/25 21:38:46;;;;;;;6.30;2.40;;;;;;;25.33;46.54;101459.66;16134176;19;130426;-43
2022/08/25 21:44:09;;;;;;;8.40;2.33;;;;;;;25.35;46.90;101463.03;16127263;19;130432;-41
2022/08/25 21:49:31;;;;;;;9.02;2.45;;;;;;;25.38;46.60;101467.22;16135625;19;129322;-49
2022/08/25 21:55:00;;;;;;;6.70;2.38;;;;;;;25.40;46.55;101451.00;16135415;19;129727;-49
2022/08/25 22:00:23;;;;;;;7.35;2.30;;;;;;;25.43;46.65;101454.06;16133664;19;129597;-47
2022/08/25 22:05:45;;;;;;;8.50;2.40;;;;;;;25.46;46.81;101467.50;16147642;19;129819;-50
2022/08/25 22:11:09;;;;;;;3.38;2.03;;;;;;;25.48;46.53;101462.44;16148691;19;129941;-50
2022/08/25 22:16:33;;;;;;;7.10;2.50;;;;;;;25.49;46.66;101469.72;16149324;19;129135;-49
2022/08/25 22:21:56;;;;;;;5.90;2.30;;;;;;;25.51;46.41;101472.28;16146830;19;129304;-41
2022/08/25 22:27:20;;;;;;;11.75;2.70;;;;;;;25.54;46.58;101470.91;16148477;19;129807;-41
2022/08/25 22:32:44;;;;;;;5.95;2.17;;;;;;;25.56;46.54;101477.06;16144707;19;129253;-41
2022/08/25 22:38:07;;;;;;;6.82;2.35;;;;;;;25.55;46.44;101483.78;16148069;19;128949;-42
2022/08/25 22:43:33;;;;;;;5.95;2.20;;;;;;;25.54;46.50;101504.50;16148096;19;129560;-41
2022/08/25 22:48:55;;;;;;;6.22;2.10;;;;;;;25.53;46.47;101492.47;16142287;19;129569;-41
2022/08/25 22:54:17;;;;;;;6.38;2.30;;;;;;;25.50;46.44;101493.81;16142447;19;129770;-42
2022/08/25 22:59:39;;;;;;;4.85;1.90;;;;;;;25.47;46.50;101494.41;16145195;19;129122;-41
2022/08/25 23:05:01;;;;;;;3.97;1.90;;;;;;;25.45;46.48;101493.84;16144882;19;130009;-40
2022/08/25 23:10:24;;;;;;;8.63;2.17;;;;;;;25.43;46.13;101498.88;16143759;19;128920;-40
2022/08/25 23:15:46;;;;;;;7.65;1.83;;;;;;;25.41;46.40;101492.72;16144305;19;130747;-41
2022/08/25 23:26:48;;;;;;;3.47;1.55;;;;;;;25.38;46.31;101510.06;16146002;19;128933;-42
2022/08/25 23:32:12;;;;;;;4.32;1.63;;;;;;;25.37;46.19;101510.34;16142183;19;130287;-41
2022/08/25 23:37:35;;;;;;;4.20;1.63;;;;;;;25.35;46.47;101505.03;16145558;19;130617;-41
2022/08/25 23:42:57;;;;;;;5.95;1.80;;;;;;;25.34;46.43;101500.56;16140559;19;130145;-40
2022/08/25 23:48:20;;;;;;;4.28;1.45;;;;;;;25.32;46.13;101503.63;16138653;19;129765;-40
2022/08/25 23:53:41;;;;;;;3.78;1.15;;;;;;;25.31;46.23;101496.34;16140190;19;129490;-41
2022/08/25 23:59:04;;;;;;;3.80;1.40;;;;;;;25.31;46.37;101495.50;16144877;19;129577;-41
